Time;durP1;ratioP1;P1;durP2;ratioP2;P2;SDS_P1;SDS_P2;PMS_P1;PMS_P2;Temp;Humidity;BMP_temperature;BMP_pressure;BME280_temperature;BME280_humidity;BME280_pressure;Samples;Min_cycle;Max_cycle;Signal;HPM_P1;HPM_P2
2021/03/24 00:01:12;;;;;;;64.55;33.85;;;7.10;84.60;;;7.76;67.77;101328.97;5054482;28;20045;-80
2021/03/24 00:03:39;;;;;;;56.42;32.65;;;7.10;84.50;;;7.79;67.36;101323.28;5052532;28;20063;-80
2021/03/24 00:06:07;;;;;;;59.38;32.90;;;7.20;84.30;;;7.79;67.50;101320.56;5053808;28;20854;-80
2021/03/24 00:08:34;;;;;;;57.13;32.03;;;7.20;84.30;;;7.75;67.43;101319.16;5053843;28;20128;-81
2021/03/24 00:11:01;;;;;;;55.30;30.48;;;7.20;84.20;;;7.77;67.51;101322.56;5054147;28;20831;-81
2021/03/24 00:13:28;;;;;;;57.72;31.50;;;7.20;84.00;;;7.75;67.17;101326.41;5052937;28;20059;-81
2021/03/24 00:15:54;;;;;;;60.38;31.90;;;7.20;83.90;;;7.74;67.57;101319.28;5053367;28;20073;-80
2021/03/24 00:18:21;;;;;;;62.53;32.22;;;7.20;83.90;;;7.77;67.95;101324.44;5048721;28;20454;-80
2021/03/24 00:20:48;;;;;;;62.33;32.40;;;7.20;84.00;;;7.76;67.42;101323.56;5052210;28;20037;-81
2021/03/24 00:23:16;;;;;;;52.30;29.83;;;7.20;84.10;;;7.79;66.99;101328.69;5052008;28;20045;-81
2021/03/24 00:25:43;;;;;;;55.30;30.08;;;7.20;84.00;;;7.78;67.17;101326.13;5053395;28;20077;-81
2021/03/24 00:28:12;;;;;;;54.85;32.08;;;7.10;84.10;;;7.72;67.12;101322.16;5053198;28;20053;-80
2021/03/24 00:30:45;;;;;;;53.63;31.05;;;7.10;84.00;;;7.74;67.35;101325.56;5059882;28;20556;-80
2021/03/24 00:33:17;;;;;;;53.75;30.75;;;7.10;84.20;;;7.76;67.92;101328.13;5053199;28;20410;-81
2021/03/24 00:35:43;;;;;;;52.70;30.42;;;7.10;84.30;;;7.77;67.73;101325.28;5047140;28;20110;-80
2021/03/24 00:38:12;;;;;;;53.50;30.35;;;7.20;84.20;;;7.76;67.05;101323.56;5051915;28;20053;-81
2021/03/24 00:40:47;;;;;;;54.33;30.52;;;7.20;84.30;;;7.75;67.52;101321.88;5046690;28;20044;-80
2021/03/24 00:43:14;;;;;;;54.58;30.52;;;7.10;84.10;;;7.68;67.57;101320.72;5053241;28;20048;-80
2021/03/24 00:45:42;;;;;;;57.20;30.65;;;7.10;84.20;;;7.70;67.83;101318.72;5052590;28;20123;-80
2021/03/24 00:48:18;;;;;;;54.80;30.80;;;7.10;84.40;;;7.69;68.05;101311.63;5053499;28;20469;-80
2021/03/24 00:50:45;;;;;;;53.75;31.52;;;7.20;84.30;;;7.72;67.88;101310.47;5053077;28;20053;-80
2021/03/24 00:53:13;;;;;;;55.30;31.50;;;7.20;84.30;;;7.68;67.79;101312.59;5052142;28;20739;-81
2021/03/24 00:55:41;;;;;;;59.20;32.00;;;7.20;84.20;;;7.69;67.28;101310.75;5056158;28;20096;-80
2021/03/24 00:58:08;;;;;;;54.13;29.45;;;7.10;84.30;;;7.69;67.99;101313.44;5057512;28;20050;-80
2021/03/24 01:00:40;;;;;;;54.25;30.52;;;7.10;84.20;;;7.67;67.92;101307.31;5057268;28;20076;-80
2021/03/24 01:03:07;;;;;;;49.05;28.35;;;7.10;84.40;;;7.68;67.71;101309.91;5056418;28;20525;-80
2021/03/24 01:05:35;;;;;;;55.28;30.48;;;7.10;84.40;;;7.69;67.93;101306.19;5057261;28;20590;-80
2021/03/24 01:08:07;;;;;;;57.42;29.67;;;7.20;84.30;;;7.67;67.90;101301.91;5057492;28;20045;-81
2021/03/24 01:10:37;;;;;;;57.92;30.42;;;7.20;84.30;;;7.70;67.80;101312.47;5057060;28;20065;-81
2021/03/24 01:13:05;;;;;;;52.80;29.77;;;7.20;84.10;;;7.70;67.31;101307.03;5055957;28;20177;-81
2021/03/24 01:15:34;;;;;;;55.25;28.55;;;7.10;84.10;;;7.69;67.82;101317.03;5056478;28;20045;-80
2021/03/24 01:18:01;;;;;;;60.10;28.92;;;7.10;84.20;;;7.62;67.23;101305.06;5053058;28;20064;-80
2021/03/24 01:20:31;;;;;;;57.80;29.73;;;7.10;84.10;;;7.61;67.83;101311.47;5053327;28;20119;-80
2021/03/24 01:22:58;;;;;;;53.83;27.80;;;7.00;84.30;;;7.60;68.37;101301.66;5056437;28;20060;-80
2021/03/24 01:25:26;;;;;;;52.90;27.70;;;7.10;84.40;;;7.63;67.84;101304.06;5056896;28;20044;-81
2021/03/24 01:27:54;;;;;;;53.47;28.35;;;7.10;84.30;;;7.66;67.77;101301.06;5056506;28;20434;-80
2021/03/24 01:30:26;;;;;;;50.00;27.63;;;7.10;84.30;;;7.66;67.40;101298.34;5056262;28;20064;-80
2021/03/24 01:32:52;;;;;;;48.83;26.35;;;7.10;84.00;;;7.66;67.37;101306.47;5056083;28;20053;-81
2021/03/24 01:35:20;;;;;;;49.63;26.23;;;7.10;84.20;;;7.66;67.46;101297.50;5056334;28;20044;-81
2021/03/24 01:37:48;;;;;;;48.83;26.83;;;7.10;84.00;;;7.70;67.21;101302.47;5055985;28;20141;-81
2021/03/24 01:40:25;;;;;;;48.58;26.73;;;7.20;84.00;;;7.69;67.72;101300.78;5056629;28;20095;-80
2021/03/24 01:42:54;;;;;;;51.45;25.55;;;7.10;83.90;;;7.66;67.41;101306.47;5055448;28;20103;-80
2021/03/24 01:46:20;;;;;;;52.53;26.25;;;7.00;83.70;;;7.61;67.44;101297.94;5056559;28;20041;-81
2021/03/24 01:48:53;;;;;;;51.10;25.27;;;7.10;83.80;;;7.62;67.48;101299.66;5027804;28;20144;-80
2021/03/24 01:51:21;;;;;;;47.92;25.70;;;7.10;84.00;;;7.63;67.65;101298.63;5055596;28;20056;-80
2021/03/24 01:53:50;;;;;;;50.38;25.65;;;7.10;84.10;;;7.61;67.75;101289.81;5054905;28;20120;-80
2021/03/24 01:56:18;;;;;;;48.95;26.80;;;7.10;84.00;;;7.58;67.53;101290.13;5055907;28;20045;-80
2021/03/24 01:58:45;;;;;;;44.42;25.20;;;7.10;84.00;;;7.60;67.81;101288.97;5054022;28;20057;-81
2021/03/24 02:01:15;;;;;;;47.40;25.63;;;7.10;84.00;;;7.62;67.67;101288.81;5055935;28;20056;-80
2021/03/24 02:03:44;;;;;;;43.10;24.75;;;7.10;83.90;;;7.60;66.86;101290.81;5055544;28;20051;-80
2021/03/24 02:06:20;;;;;;;44.38;25.00;;;7.10;83.80;;;7.56;67.16;101286.69;5055706;28;20774;-81
2021/03/24 02:08:58;;;;;;;46.10;25.35;;;7.10;83.70;;;7.59;67.55;101283.69;5055390;28;20060;-80
2021/03/24 02:11:33;;;;;;;45.38;25.17;;;7.10;83.80;;;7.63;67.29;101285.09;5054949;28;20041;-81
2021/03/24 02:14:11;;;;;;;51.10;25.42;;;7.10;83.60;;;7.63;67.19;101285.09;5055340;28;21795;-81
2021/03/24 02:16:44;;;;;;;47.05;26.20;;;7.10;83.50;;;7.63;66.72;101285.09;5051602;28;20123;-80
2021/03/24 02:19:27;;;;;;;43.92;24.88;;;7.10;83.40;;;7.60;66.77;101282.69;5055393;28;20060;-81
2021/03/24 02:21:56;;;;;;;43.75;25.38;;;7.10;83.50;;;7.58;67.20;101279.28;5048480;28;20047;-80
2021/03/24 02:24:36;;;;;;;50.13;26.48;;;7.10;83.40;;;7.54;67.11;101275.13;5055010;28;20076;-80
2021/03/24 02:27:13;;;;;;;50.03;25.95;;;7.10;83.50;;;7.52;67.10;101277.13;5070765;28;20102;-81
2021/03/24 02:29:47;;;;;;;43.95;24.15;;;7.00;83.50;;;7.44;67.28;101281.44;5054975;28;20080;-80
2021/03/24 02:32:17;;;;;;;48.78;25.33;;;6.90;83.50;;;7.46;67.47;101285.84;5054928;28;20037;-81
2021/03/24 02:34:47;;;;;;;46.15;24.42;;;6.90;84.00;;;7.40;67.44;101280.00;5054259;28;20056;-80
2021/03/24 02:37:15;;;;;;;44.25;25.10;;;6.80;84.00;;;7.38;67.41;101279.28;5054825;28;20076;-81
2021/03/24 02:39:44;;;;;;;45.33;25.52;;;6.80;84.00;;;7.40;66.73;101285.41;5054006;28;20065;-80
2021/03/24 02:42:14;;;;;;;51.60;26.02;;;6.80;84.10;;;7.39;67.10;101282.88;5055057;28;20053;-80
2021/03/24 02:44:44;;;;;;;44.67;24.30;;;6.70;84.00;;;7.26;66.44;101276.91;5054665;28;20041;-80
2021/03/24 02:47:12;;;;;;;46.60;25.88;;;6.70;83.80;;;7.16;66.71;101283.19;5053504;28;20068;-80
2021/03/24 02:49:41;;;;;;;46.55;25.73;;;6.50;83.80;;;7.05;66.62;101283.31;5053485;28;20100;-81
2021/03/24 02:52:11;;;;;;;47.88;26.40;;;6.30;83.90;;;6.99;66.30;101282.03;5054411;28;20056;-81
2021/03/24 02:54:39;;;;;;;48.10;24.40;;;6.20;84.00;;;6.94;66.26;101281.59;5055235;28;20546;-81
2021/03/24 02:57:07;;;;;;;45.28;26.88;;;6.20;84.30;;;6.91;66.50;101273.78;5054486;28;20421;-80
2021/03/24 02:59:35;;;;;;;47.83;25.85;;;6.10;84.50;;;6.89;66.83;101277.63;5055685;28;20052;-80
2021/03/24 03:02:10;;;;;;;48.47;25.95;;;6.20;84.60;;;6.85;66.59;101277.03;5054330;28;20045;-80
2021/03/24 03:04:40;;;;;;;47.65;26.85;;;6.00;84.40;;;6.78;66.35;101282.19;5054659;28;20079;-80
2021/03/24 03:07:15;;;;;;;45.20;26.52;;;5.90;84.40;;;6.65;66.56;101277.03;5054249;28;20055;-81
2021/03/24 03:09:49;;;;;;;47.10;26.02;;;5.80;84.50;;;6.57;66.83;101279.59;5054907;28;20518;-80
2021/03/24 03:12:28;;;;;;;50.63;26.85;;;5.70;84.90;;;6.60;66.52;101279.28;5048057;28;20578;-81
2021/03/24 03:15:02;;;;;;;46.53;25.73;;;5.70;85.00;;;6.58;66.60;101283.97;5054617;28;20040;-80
2021/03/24 03:17:37;;;;;;;42.97;24.88;;;5.60;84.80;;;6.49;66.63;101279.41;5054233;28;20072;-80
2021/03/24 03:20:12;;;;;;;46.58;24.58;;;5.50;85.10;;;6.44;66.75;101281.69;5054861;28;20044;-80
2021/03/24 03:22:49;;;;;;;44.50;24.67;;;5.50;85.40;;;6.40;66.48;101274.88;5054866;28;20049;-80
2021/03/24 03:25:22;;;;;;;46.92;25.05;;;5.40;85.40;;;6.36;66.61;101278.81;5054656;28;20277;-81
2021/03/24 03:27:53;;;;;;;46.63;24.95;;;5.40;85.60;;;6.35;67.25;101277.13;5055012;28;20060;-81
2021/03/24 03:30:27;;;;;;;45.10;25.83;;;5.40;85.90;;;6.34;67.04;101269.97;5053916;28;20063;-81
2021/03/24 03:32:57;;;;;;;46.80;24.77;;;5.40;86.00;;;6.39;67.08;101275.84;5048461;28;20076;-80
2021/03/24 03:35:27;;;;;;;43.78;24.52;;;5.40;86.20;;;6.37;67.44;101275.97;5054413;28;20073;-81
2021/03/24 03:37:57;;;;;;;45.00;24.67;;;5.40;86.40;;;6.39;67.56;101270.44;5054445;28;20052;-81
2021/03/24 03:40:28;;;;;;;43.03;24.45;;;5.50;86.80;;;6.41;67.90;101271.16;5054296;28;20048;-80
2021/03/24 03:42:55;;;;;;;51.20;26.77;;;5.50;86.70;;;6.43;67.82;101271.84;5054198;28;20076;-80
2021/03/24 03:45:24;;;;;;;50.25;26.80;;;5.50;86.50;;;6.43;67.71;101275.41;5053983;28;20044;-80
2021/03/24 03:47:51;;;;;;;51.58;26.60;;;5.50;86.70;;;6.44;67.11;101274.44;5053675;28;20487;-80
2021/03/24 03:50:22;;;;;;;47.80;25.55;;;5.50;86.70;;;6.43;67.37;101279.97;5053619;28;20076;-80
2021/03/24 03:53:03;;;;;;;45.33;24.85;;;5.40;86.60;;;6.39;67.65;101275.84;5053490;28;20048;-80
2021/03/24 03:55:43;;;;;;;47.93;26.03;;;5.40;86.80;;;6.34;68.06;101281.69;5054338;28;20064;-81
2021/03/24 03:58:22;;;;;;;51.07;26.00;;;5.40;87.00;;;6.34;67.99;101275.38;5049306;28;20068;-81
2021/03/24 04:01:00;;;;;;;45.40;24.65;;;5.40;87.20;;;6.45;68.22;101277.97;5052608;28;20306;-80
2021/03/24 04:03:33;;;;;;;50.83;26.27;;;5.50;87.40;;;6.46;68.88;101280.56;5047844;28;20041;-80
2021/03/24 04:06:07;;;;;;;54.67;24.42;;;5.60;87.50;;;6.50;69.00;101273.03;5054123;28;20048;-80
2021/03/24 04:08:35;;;;;;;47.03;25.45;;;5.70;87.40;;;6.53;68.85;101275.47;5053751;28;20060;-80
2021/03/24 04:11:08;;;;;;;52.40;25.92;;;5.80;87.20;;;6.53;69.55;101275.47;5053775;28;20124;-80
2021/03/24 04:13:55;;;;;;;47.25;24.40;;;5.80;87.20;;;6.57;69.33;101271.47;5052987;28;20045;-81
2021/03/24 04:16:24;;;;;;;49.22;24.27;;;5.90;87.20;;;6.64;69.11;101269.94;5053624;28;20124;-80
2021/03/24 04:18:56;;;;;;;47.28;25.33;;;5.90;87.00;;;6.64;68.74;101266.34;5068992;28;20045;-80
2021/03/24 04:21:25;;;;;;;50.53;24.80;;;5.90;86.80;;;6.65;69.50;101266.22;5053590;28;20045;-81
2021/03/24 04:24:06;;;;;;;47.10;24.02;;;6.10;86.90;;;6.70;68.87;101267.63;5053145;28;20053;-80
2021/03/24 04:26:38;;;;;;;47.83;24.87;;;6.00;86.60;;;6.74;68.87;101266.34;5048363;28;20041;-81
2021/03/24 04:29:11;;;;;;;49.97;24.83;;;6.10;86.50;;;6.75;68.75;101274.34;5052626;28;20047;-80
2021/03/24 04:31:48;;;;;;;51.60;25.35;;;6.10;86.40;;;6.76;68.74;101275.19;5053602;28;20060;-80
2021/03/24 04:34:16;;;;;;;48.80;24.90;;;6.10;86.40;;;6.80;68.64;101282.03;5053045;28;20072;-80
2021/03/24 04:36:48;;;;;;;51.53;24.95;;;6.10;86.30;;;6.80;68.73;101284.75;5052352;28;20443;-80
2021/03/24 04:39:23;;;;;;;47.50;24.92;;;6.20;86.10;;;6.84;68.20;101288.88;5052931;28;20044;-80
2021/03/24 04:41:51;;;;;;;43.70;24.13;;;6.20;86.10;;;6.82;68.71;101280.91;5053541;28;20611;-81
2021/03/24 04:44:25;;;;;;;47.17;25.13;;;6.20;85.80;;;6.73;68.67;101289.84;5052772;28;20072;-81
2021/03/24 04:47:00;;;;;;;51.33;25.42;;;6.20;85.80;;;6.78;68.37;101287.59;5053436;28;20447;-80
2021/03/24 04:49:29;;;;;;;50.58;25.65;;;6.20;85.80;;;6.77;68.79;101282.31;5052981;28;20849;-80
2021/03/24 04:51:58;;;;;;;47.70;24.73;;;6.20;85.80;;;6.78;68.57;101290.28;5051191;28;20132;-81
2021/03/24 04:54:31;;;;;;;50.67;25.38;;;6.20;85.80;;;6.78;68.54;101286.75;5052747;28;20048;-80
2021/03/24 04:57:02;;;;;;;51.75;25.80;;;6.20;85.80;;;6.76;68.56;101277.88;5045455;28;20073;-81
2021/03/24 04:59:34;;;;;;;47.15;24.45;;;6.20;86.00;;;6.75;68.91;101284.31;5047038;28;20056;-81
2021/03/24 05:02:07;;;;;;;41.60;23.30;;;6.10;85.90;;;6.76;68.54;101286.88;5052614;28;20040;-81
2021/03/24 05:04:39;;;;;;;44.83;23.98;;;6.10;85.90;;;6.69;68.38;101287.59;5053079;28;20053;-81
2021/03/24 05:07:15;;;;;;;45.33;24.73;;;6.10;85.90;;;6.73;68.34;101287.16;5052801;28;20045;-80
2021/03/24 05:09:44;;;;;;;53.33;26.17;;;6.10;86.00;;;6.75;68.36;101287.00;5052812;28;20709;-81
2021/03/24 05:12:19;;;;;;;45.97;24.38;;;6.10;85.90;;;6.74;68.40;101288.00;5052213;28;20045;-81
2021/03/24 05:14:53;;;;;;;48.22;24.50;;;6.10;85.90;;;6.75;68.62;101287.00;5052639;28;20114;-80
2021/03/24 05:17:26;;;;;;;48.33;25.65;;;6.20;85.90;;;6.72;68.74;101295.41;5053242;28;20092;-80
2021/03/24 05:20:00;;;;;;;46.63;24.55;;;6.10;85.80;;;6.74;68.38;101291.56;5052816;28;20044;-80
2021/03/24 05:22:32;;;;;;;48.67;24.00;;;6.10;86.00;;;6.76;68.75;101296.81;5053098;28;20046;-80
2021/03/24 05:25:05;;;;;;;51.85;25.55;;;6.10;86.00;;;6.74;68.77;101288.00;5052382;28;20529;-80
2021/03/24 05:27:39;;;;;;;49.58;25.38;;;6.10;85.90;;;6.72;68.21;101293.56;5051274;28;20490;-80
2021/03/24 05:30:16;;;;;;;47.03;24.85;;;6.20;85.90;;;6.72;67.96;101289.97;5052476;28;20045;-80
2021/03/24 05:32:48;;;;;;;50.63;25.00;;;6.10;86.00;;;6.70;68.40;101290.16;5050698;28;20056;-84
2021/03/24 05:35:39;;;;;;;48.25;23.80;;;6.10;85.90;;;6.74;68.13;101288.00;5053527;28;20045;-80
2021/03/24 05:38:15;;;;;;;42.38;22.67;;;6.10;86.00;;;6.75;68.02;101293.25;5047661;28;20044;-81
2021/03/24 05:41:11;;;;;;;46.30;23.98;;;6.10;86.00;;;6.72;68.46;101295.41;5050895;28;20041;-83
2021/03/24 05:44:14;;;;;;;50.70;24.00;;;6.10;85.80;;;6.72;68.48;101295.41;5057703;28;20101;-84
2021/03/24 05:47:15;;;;;;;43.65;24.08;;;6.10;86.00;;;6.76;68.15;101294.13;5053090;28;20041;-84
2021/03/24 05:49:50;;;;;;;44.58;23.88;;;6.10;85.80;;;6.74;68.73;101299.69;4990704;28;20057;-84
2021/03/24 05:52:35;;;;;;;47.97;25.25;;;6.10;85.90;;;6.75;69.08;101289.72;5059036;28;20037;-84
2021/03/24 05:55:35;;;;;;;47.22;24.17;;;6.20;85.80;;;6.75;68.64;101289.72;5058101;28;20045;-84
2021/03/24 05:58:20;;;;;;;49.70;24.15;;;6.20;85.80;;;6.74;68.95;101296.09;5048285;28;20742;-83
2021/03/24 06:00:53;;;;;;;46.33;22.83;;;6.20;85.60;;;6.72;69.05;101296.28;5059257;28;20371;-84
2021/03/24 06:04:11;;;;;;;43.05;23.45;;;6.20;85.50;;;6.73;69.32;101295.25;5059201;28;20053;-84
2021/03/24 06:07:36;;;;;;;46.17;23.25;;;6.30;85.50;;;6.77;69.08;101293.13;5039789;28;20462;-83
2021/03/24 06:10:36;;;;;;;47.90;24.45;;;6.30;85.50;;;6.78;69.20;101290.28;5056799;28;20567;-83
2021/03/24 06:14:02;;;;;;;51.00;24.10;;;6.40;85.40;;;6.86;68.63;101286.88;5053116;28;20044;-83
2021/03/24 06:17:18;;;;;;;46.10;24.48;;;6.50;85.30;;;6.86;69.28;101286.88;5058283;28;20056;-83
2021/03/24 06:19:59;;;;;;;53.83;25.25;;;6.60;84.90;;;6.90;69.01;101282.03;5056737;28;20573;-83
2021/03/24 06:22:44;;;;;;;61.47;28.63;;;6.80;84.80;;;6.93;68.36;101281.75;5054933;28;20263;-83
2021/03/24 06:25:34;;;;;;;69.93;30.95;;;6.70;84.10;;;6.96;68.46;101282.31;5053997;28;20834;-83
2021/03/24 06:28:35;;;;;;;65.05;28.35;;;6.90;84.00;;;6.99;68.52;101282.03;5053844;28;20072;-83
2021/03/24 06:31:55;;;;;;;63.78;30.30;;;6.90;84.00;;;7.09;68.99;101278.50;5048238;28;20045;-85
2021/03/24 06:35:16;;;;;;;55.72;26.80;;;7.10;83.70;;;7.13;69.09;101277.19;5051628;28;20049;-82
2021/03/24 06:38:13;;;;;;;50.97;24.83;;;7.20;83.50;;;7.15;68.96;101280.63;5037256;28;20060;-84
2021/03/24 06:40:52;;;;;;;52.95;25.02;;;7.30;83.00;;;7.19;68.61;101292.84;5046575;28;20041;-83
2021/03/24 06:43:40;;;;;;;50.85;24.90;;;7.30;82.80;;;7.22;69.02;101292.59;5052302;28;20110;-83
2021/03/24 06:46:21;;;;;;;47.65;23.98;;;7.40;82.40;;;7.23;68.39;101283.44;5052920;28;20056;-83
2021/03/24 06:49:36;;;;;;;46.93;24.60;;;7.50;82.50;;;7.29;68.68;101290.13;5053150;28;20411;-83
2021/03/24 06:53:04;;;;;;;47.55;23.10;;;7.60;82.00;;;7.38;68.52;101287.41;5044351;28;20053;-83
2021/03/24 06:56:31;;;;;;;52.63;24.60;;;7.70;81.50;;;7.44;68.09;101292.28;5052467;28;20040;-83
2021/03/24 06:59:35;;;;;;;49.25;23.15;;;7.80;81.10;;;7.48;68.67;101289.25;5046634;28;20057;-83
2021/03/24 07:03:08;;;;;;;47.03;21.92;;;7.90;80.70;;;7.46;68.81;101293.97;5052424;28;20049;-83
2021/03/24 07:06:20;;;;;;;40.15;20.80;;;8.10;80.30;;;7.47;68.27;101295.69;5046656;28;20092;-83
2021/03/24 07:08:56;;;;;;;;;;;8.30;79.60;;;7.51;68.82;101286.28;5053014;28;20103;-83
2021/03/24 07:12:12;;;;;;;45.97;21.85;;;8.40;79.30;;;7.52;69.12;101293.38;5039768;28;19920;-84
2021/03/24 07:15:24;;;;;;;49.92;21.58;;;8.50;78.90;;;7.57;68.93;101293.81;5041455;28;20048;-83
2021/03/24 07:18:41;;;;;;;44.00;22.48;;;8.60;78.90;;;7.59;67.89;101297.22;5052043;28;20044;-84
2021/03/24 07:21:43;;;;;;;49.65;23.27;;;8.70;78.10;;;7.69;68.79;101300.78;5052269;28;20037;-84
2021/03/24 07:24:42;;;;;;;47.17;22.70;;;8.80;77.80;;;7.78;68.88;101299.88;5036907;28;20053;-84
2021/03/24 07:27:41;;;;;;;48.47;23.05;;;8.90;77.60;;;7.81;69.17;101304.16;5046972;28;20045;-83
2021/03/24 07:30:24;;;;;;;43.22;21.42;;;9.00;77.80;;;7.86;67.96;101299.13;5051766;28;20504;-84
2021/03/24 07:32:55;;;;;;;47.22;21.02;;;9.10;77.20;;;7.93;68.14;101296.72;5051198;28;20036;-84
2021/03/24 07:35:47;;;;;;;43.40;22.08;;;9.20;76.90;;;7.99;68.61;101296.94;5051712;28;20041;-84
2021/03/24 07:38:46;;;;;;;;;;;9.30;76.90;;;8.05;68.04;101295.50;5052704;28;20045;-84
2021/03/24 07:42:01;;;;;;;47.85;22.90;;;9.40;76.40;;;8.14;68.27;101296.47;5047666;28;19935;-84
2021/03/24 07:45:02;;;;;;;43.47;22.15;;;9.50;76.70;;;8.18;68.25;101296.00;5044824;28;20049;-84
2021/03/24 07:47:53;;;;;;;;;;;9.50;76.70;;;8.25;68.62;101296.28;5052198;28;20037;-84
2021/03/24 07:50:33;;;;;;;44.65;21.02;;;9.70;76.40;;;8.30;67.89;101287.69;5047625;28;19933;-84
2021/03/24 07:53:28;;;;;;;44.58;22.20;;;9.70;76.20;;;8.38;68.40;101295.94;5051497;28;20116;-85
2021/03/24 07:56:07;;;;;;;44.88;22.15;;;9.80;76.10;;;8.44;67.68;101295.38;5044813;28;20057;-85
2021/03/24 07:59:08;;;;;;;44.65;23.02;;;9.90;75.50;;;8.49;67.74;101293.06;5051876;28;20053;-84
2021/03/24 08:01:47;;;;;;;45.25;22.45;;;10.10;75.10;;;8.56;68.52;101294.13;5045644;28;20048;-80
2021/03/24 08:04:41;;;;;;;49.25;23.80;;;10.10;75.50;;;8.65;68.13;101291.53;5050803;28;20613;-83
2021/03/24 08:07:22;;;;;;;46.80;23.48;;;10.30;75.30;;;8.72;67.96;101285.34;5050984;28;20048;-82
2021/03/24 08:10:15;;;;;;;47.15;23.17;;;10.30;74.70;;;8.80;68.87;101298.13;5039767;28;20099;-83
2021/03/24 08:13:00;;;;;;;46.35;23.23;;;10.50;74.90;;;8.88;68.21;101298.22;5029553;28;20064;-81
2021/03/24 08:15:53;;;;;;;53.25;23.30;;;10.50;74.60;;;8.94;67.65;101291.31;5051265;28;20563;-83
2021/03/24 08:18:35;;;;;;;47.95;24.08;;;10.60;74.40;;;9.02;67.71;101287.81;5050914;28;20139;-82
2021/03/24 08:21:11;;;;;;;52.03;23.20;;;10.70;74.10;;;9.09;67.66;101284.31;5052352;28;20052;-79
2021/03/24 08:24:06;;;;;;;51.38;25.25;;;10.80;74.20;;;9.15;67.79;101286.41;5052606;28;20120;-79
2021/03/24 08:26:43;;;;;;;49.83;24.05;;;10.80;73.70;;;9.23;66.70;101284.78;5051843;28;20072;-80
2021/03/24 08:29:20;;;;;;;57.25;25.35;;;10.90;73.40;;;9.26;66.94;101289.91;5054193;28;20045;-80
2021/03/24 08:32:43;;;;;;;46.85;24.27;;;10.90;73.10;;;9.34;66.25;101288.09;5047018;28;20052;-79
2021/03/24 08:35:34;;;;;;;47.47;23.92;;;11.00;72.90;;;9.44;66.57;101285.28;5045939;28;20045;-79
2021/03/24 08:38:42;;;;;;;45.33;24.33;;;11.10;72.90;;;9.51;67.53;101288.22;5053763;28;20516;-80
2021/03/24 08:41:56;;;;;;;49.95;24.13;;;11.20;73.00;;;9.55;66.03;101285.03;5010402;28;20475;-80
2021/03/24 08:44:28;;;;;;;49.60;25.10;;;11.30;72.20;;;9.58;65.47;101281.16;5022701;28;20056;-80
2021/03/24 08:46:59;;;;;;;52.78;25.50;;;11.30;71.70;;;9.61;66.17;101278.09;5059838;28;20049;-80
2021/03/24 08:49:29;;;;;;;46.70;24.63;;;11.30;72.00;;;9.67;65.30;101269.34;5051019;28;20051;-80
2021/03/24 08:52:09;;;;;;;48.95;24.42;;;11.30;71.40;;;9.72;64.94;101275.13;5048213;28;20049;-80
2021/03/24 08:54:59;;;;;;;55.60;25.05;;;11.40;71.50;;;9.75;64.76;101274.81;5049408;28;20095;-80
2021/03/24 08:57:44;;;;;;;53.58;24.10;;;11.40;71.00;;;9.82;65.45;101271.44;5049703;28;20041;-80
2021/03/24 09:00:30;;;;;;;49.15;23.73;;;11.40;71.40;;;9.86;65.64;101265.53;5047236;28;20098;-80
2021/03/24 09:03:28;;;;;;;52.45;24.85;;;11.50;71.30;;;9.91;64.85;101268.59;5046608;28;20052;-80
2021/03/24 09:06:04;;;;;;;58.85;26.30;;;11.60;70.90;;;9.96;64.74;101265.41;5051907;28;20072;-79
2021/03/24 09:08:37;;;;;;;49.17;25.80;;;11.60;70.90;;;10.01;65.23;101263.03;5051378;28;20045;-80
2021/03/24 09:11:39;;;;;;;55.70;24.70;;;11.70;71.00;;;10.05;63.87;101267.16;5052058;28;20084;-80
2021/03/24 09:14:24;;;;;;;54.00;25.42;;;11.70;70.00;;;10.11;64.80;101257.47;5052728;28;20131;-81
2021/03/24 09:17:36;;;;;;;53.53;26.60;;;11.80;70.90;;;10.13;64.53;101267.19;5052527;28;20041;-80
2021/03/24 09:20:58;;;;;;;47.65;25.67;;;11.80;70.00;;;10.22;64.04;101276.22;5053340;28;20045;-80
2021/03/24 09:24:12;;;;;;;52.63;25.50;;;11.90;70.00;;;10.32;64.69;101270.72;5060703;28;20106;-80
2021/03/24 09:27:42;;;;;;;55.05;25.95;;;11.90;70.70;;;10.33;63.31;101261.50;5053181;28;20037;-80
2021/03/24 09:30:36;;;;;;;54.45;25.90;;;12.00;69.10;;;10.41;63.03;101264.25;5058269;28;20052;-80
2021/03/24 09:33:28;;;;;;;58.55;26.17;;;12.10;69.10;;;10.44;62.83;101263.94;5073750;28;20048;-80
2021/03/24 09:36:35;;;;;;;60.70;26.88;;;12.10;68.70;;;10.51;63.78;101258.69;5055393;28;20041;-80
2021/03/24 09:39:18;;;;;;;55.28;26.23;;;12.20;69.50;;;10.56;63.07;101257.16;5058463;28;20605;-80
2021/03/24 09:41:51;;;;;;;54.53;26.75;;;12.20;69.00;;;10.59;63.20;101258.72;5057072;28;20053;-80
2021/03/24 09:44:27;;;;;;;58.60;26.65;;;12.30;69.10;;;10.65;63.75;101254.47;5057684;28;20055;-80
2021/03/24 09:46:56;;;;;;;59.92;26.50;;;12.30;69.30;;;10.73;62.63;101257.19;5057949;28;20041;-80
2021/03/24 09:49:31;;;;;;;57.17;26.48;;;12.30;68.50;;;10.71;62.71;101253.78;5058135;28;20112;-80
2021/03/24 09:52:22;;;;;;;55.63;26.30;;;12.40;68.20;;;10.74;61.99;101253.47;5052253;28;20041;-80
2021/03/24 09:55:23;;;;;;;52.20;25.23;;;12.40;67.90;;;10.78;62.19;101241.22;5051947;28;20460;-80
2021/03/24 09:58:48;;;;;;;54.63;26.40;;;12.50;68.50;;;10.80;63.12;101243.78;5044679;28;20510;-80
2021/03/24 10:01:41;;;;;;;54.28;25.67;;;12.50;68.60;;;10.86;62.29;101230.34;5052189;28;20094;-80
2021/03/24 10:04:36;;;;;;;53.22;25.73;;;12.50;67.90;;;10.91;62.39;101236.13;5056722;28;20044;-80
2021/03/24 10:07:14;;;;;;;55.38;25.65;;;12.60;68.10;;;10.99;63.48;101234.44;5052224;28;20064;-80
2021/03/24 10:09:51;;;;;;;59.78;27.50;;;12.60;68.40;;;11.06;62.00;101230.88;5057621;28;20056;-82
2021/03/24 10:12:31;;;;;;;112.22;27.92;;;12.70;68.30;;;11.10;61.82;101225.91;5058133;28;20570;-80
2021/03/24 10:15:14;;;;;;;53.53;24.48;;;12.70;67.50;;;11.15;61.88;101220.78;5056447;28;20045;-81
2021/03/24 10:17:52;;;;;;;48.60;23.25;;;12.80;67.40;;;11.15;61.71;101208.03;5051064;28;20033;-80
2021/03/24 10:20:26;;;;;;;44.72;20.90;;;12.80;66.60;;;11.24;61.17;101216.22;5057664;28;20045;-80
2021/03/24 10:23:01;;;;;;;46.00;21.30;;;12.90;66.40;;;11.26;60.17;101215.00;5056677;28;20033;-80
2021/03/24 10:25:37;;;;;;;47.15;21.55;;;12.90;65.40;;;11.30;61.40;101213.63;5058032;28;20044;-80
2021/03/24 10:28:11;;;;;;;44.22;21.25;;;13.00;66.00;;;11.34;61.06;101214.97;5056077;28;20045;-80
2021/03/24 10:30:42;;;;;;;47.30;21.67;;;13.00;66.40;;;11.42;61.34;101221.44;5058011;28;20052;-80
2021/03/24 10:33:23;;;;;;;43.17;20.65;;;13.10;66.80;;;11.38;60.53;101228.28;5057254;28;20041;-80
2021/03/24 10:36:17;;;;;;;51.67;23.08;;;13.10;65.70;;;11.47;59.75;101227.25;5050489;28;20106;-82
2021/03/24 10:38:57;;;;;;;46.45;21.23;;;13.10;66.10;;;11.55;59.98;101225.34;5050652;28;20057;-82
2021/03/24 10:41:51;;;;;;;44.80;22.48;;;13.20;65.20;;;11.55;58.74;101214.44;5052217;28;20041;-82
2021/03/24 10:44:27;;;;;;;52.83;23.63;;;13.10;64.20;;;11.55;58.92;101217.16;5062854;28;20049;-81
2021/03/24 10:47:18;;;;;;;49.53;22.10;;;13.20;64.40;;;11.60;61.10;101213.94;5052247;28;20052;-82
2021/03/24 10:50:04;;;;;;;48.75;22.67;;;13.20;65.60;;;11.71;60.19;101213.56;5047282;28;20041;-82
2021/03/24 10:52:40;;;;;;;58.45;24.30;;;13.30;65.40;;;11.75;60.16;101208.59;5048826;28;20064;-82
2021/03/24 10:55:30;;;;;;;51.33;22.52;;;13.40;65.00;;;11.73;58.71;101216.97;5052740;28;20625;-82
2021/03/24 10:58:22;;;;;;;52.25;23.75;;;13.40;63.90;;;11.76;59.57;101209.44;5053182;28;20063;-82
2021/03/24 11:01:05;;;;;;;56.95;24.67;;;13.40;64.20;;;11.83;58.53;101210.47;5048116;28;20118;-79
2021/03/24 11:03:41;;;;;;;60.38;26.38;;;13.50;63.80;;;11.87;59.09;101217.25;5053595;28;20041;-82
2021/03/24 11:06:15;;;;;;;52.25;22.83;;;13.50;63.70;;;11.90;58.22;101208.75;5053497;28;20053;-82
2021/03/24 11:08:54;;;;;;;50.67;23.88;;;13.50;63.00;;;11.91;59.47;101213.19;5054918;28;20056;-82